Time;durP1;ratioP1;P1;durP2;ratioP2;P2;SDS_P1;SDS_P2;PMS_P1;PMS_P2;Temp;Humidity;BMP_temperature;BMP_pressure;BME280_temperature;BME280_humidity;BME280_pressure;Samples;Min_cycle;Max_cycle;Signal;HPM_P1;HPM_P2
2023/02/04 00:01:30;;;;;;;13.93;9.32;;;;;;;2.25;66.46;99244.72;4982801;28;20461;-95
2023/02/04 00:03:56;;;;;;;16.63;8.65;;;;;;;2.39;66.07;99260.31;4982248;28;20030;-95
2023/02/04 00:06:21;;;;;;;15.85;8.95;;;;;;;2.12;67.35;99225.19;4981424;28;20034;-95
2023/02/04 00:08:47;;;;;;;13.07;8.05;;;;;;;2.17;66.87;99235.97;4982271;28;20107;-95
2023/02/04 00:11:12;;;;;;;12.25;7.00;;;;;;;2.29;66.50;99245.91;4982373;28;20057;-95
2023/02/04 00:13:38;;;;;;;17.23;8.35;;;;;;;2.32;66.95;99240.16;4981735;28;20424;-95
2023/02/04 00:16:03;;;;;;;12.55;7.15;;;;;;;2.30;67.04;99239.56;4985655;28;20038;-95
2023/02/04 00:18:29;;;;;;;10.43;6.43;;;;;;;2.42;66.10;99233.31;4985042;28;20405;-95
2023/02/04 00:20:54;;;;;;;13.55;6.68;;;;;;;2.36;67.59;99236.03;4985757;28;20022;-95
2023/02/04 00:23:20;;;;;;;9.80;6.22;;;;;;;2.48;67.15;99223.66;4985710;28;20073;-95
2023/02/04 00:25:45;;;;;;;13.05;8.05;;;;;;;2.51;68.32;99220.56;4986361;28;20079;-95
2023/02/04 00:28:13;;;;;;;11.35;7.43;;;;;;;2.47;68.72;99198.13;4985653;28;20022;-95
2023/02/04 00:30:39;;;;;;;13.93;8.02;;;;;;;2.56;68.74;99211.94;4985765;28;20409;-95
2023/02/04 00:33:04;;;;;;;14.25;7.72;;;;;;;2.51;69.37;99186.03;4985244;28;20022;-95
2023/02/04 00:35:30;;;;;;;15.73;8.80;;;;;;;2.39;69.57;99185.94;4986929;28;20038;-95
2023/02/04 00:37:55;;;;;;;13.68;6.80;;;;;;;2.51;70.06;99204.63;4984692;28;20033;-95
2023/02/04 00:40:21;;;;;;;12.40;7.38;;;;;;;2.34;71.33;99196.38;4985817;28;20028;-95
2023/02/04 00:42:47;;;;;;;12.88;7.38;;;;;;;2.23;71.49;99178.53;4986087;28;20025;-96
2023/02/04 00:45:15;;;;;;;13.18;7.32;;;;;;;2.36;71.24;99180.22;4985529;28;20080;-95
2023/02/04 00:47:40;;;;;;;9.02;6.38;;;;;;;2.29;71.44;99158.25;4985985;28;20022;-95
2023/02/04 00:50:06;;;;;;;10.10;6.03;;;;;;;2.43;71.58;99157.06;4985972;28;20452;-95
2023/02/04 00:52:32;;;;;;;12.82;7.05;;;;;;;2.47;71.65;99150.28;4985381;28;20026;-94
2023/02/04 00:54:57;;;;;;;10.10;6.00;;;;;;;2.60;71.92;99150.13;4985921;28;20428;-95
2023/02/04 00:57:23;;;;;;;8.40;5.60;;;;;;;2.54;71.85;99120.97;4984743;28;20026;-95
2023/02/04 00:59:48;;;;;;;9.10;5.57;;;;;;;2.62;71.76;99129.47;4985035;28;20026;-94
2023/02/04 01:02:14;;;;;;;7.95;5.03;;;;;;;2.67;72.20;99128.78;4985161;28;20026;-94
2023/02/04 01:04:40;;;;;;;8.65;5.03;;;;;;;2.83;71.40;99135.34;4984345;28;20026;-96
2023/02/04 01:07:06;;;;;;;7.00;4.57;;;;;;;2.77;71.69;99114.97;5001287;28;20014;-96
2023/02/04 01:09:32;;;;;;;9.20;4.80;;;;;;;2.81;71.98;99113.50;4985040;28;20105;-96
2023/02/04 01:11:58;;;;;;;9.15;4.53;;;;;;;2.77;71.24;99102.50;4985369;28;20021;-96
2023/02/04 01:14:23;;;;;;;6.38;3.40;;;;;;;2.78;72.17;99098.81;4983945;28;20021;-95
2023/02/04 01:16:49;;;;;;;6.10;3.50;;;;;;;2.85;71.98;99104.03;4985457;28;20026;-95
2023/02/04 01:19:14;;;;;;;4.95;3.50;;;;;;;2.80;71.68;99079.94;4984647;28;20030;-95
2023/02/04 01:21:40;;;;;;;4.70;3.28;;;;;;;2.81;71.71;99069.09;4984561;28;20018;-95
2023/02/04 01:24:05;;;;;;;5.38;3.70;;;;;;;2.77;71.67;99072.44;4984123;28;20018;-95
2023/02/04 01:26:31;;;;;;;3.80;2.88;;;;;;;2.94;71.99;99078.75;4985024;28;20026;-95
2023/02/04 01:28:56;;;;;;;4.85;3.08;;;;;;;3.04;72.03;99083.53;4984212;28;20508;-94
2023/02/04 01:31:22;;;;;;;4.47;3.20;;;;;;;2.99;72.20;99070.91;4985205;28;20032;-95
2023/02/04 01:33:47;;;;;;;4.35;2.97;;;;;;;2.87;72.04;99059.41;4984000;28;20396;-95
2023/02/04 01:36:13;;;;;;;3.55;2.67;;;;;;;2.73;72.13;99045.47;4985556;28;20030;-95
2023/02/04 01:38:38;;;;;;;4.85;3.13;;;;;;;2.60;72.77;99040.34;4984247;28;20025;-95
2023/02/04 01:41:04;;;;;;;4.32;3.00;;;;;;;2.70;72.58;99037.16;4984703;28;20404;-95
2023/02/04 01:43:30;;;;;;;7.00;2.97;;;;;;;2.77;72.74;99041.34;4984237;28;20025;-94
2023/02/04 01:45:55;;;;;;;5.10;3.50;;;;;;;2.82;72.90;99036.19;4984684;28;20022;-94
2023/02/04 01:48:21;;;;;;;5.65;3.00;;;;;;;2.80;72.65;99032.09;4983454;28;20022;-94
2023/02/04 01:50:47;;;;;;;3.88;2.70;;;;;;;2.60;72.89;99003.94;4984496;28;20033;-94
2023/02/04 01:53:15;;;;;;;3.70;2.53;;;;;;;2.66;73.13;98999.59;4983769;28;20025;-94
2023/02/04 01:55:40;;;;;;;5.95;2.83;;;;;;;2.76;73.98;99021.13;4984313;28;20112;-95
2023/02/04 01:58:09;;;;;;;5.32;3.03;;;;;;;2.79;72.75;98987.94;4983597;28;20049;-96
2023/02/04 02:00:34;;;;;;;4.90;3.13;;;;;;;2.81;73.45;99001.84;4983967;28;20503;-96
2023/02/04 02:03:02;;;;;;;5.88;2.97;;;;;;;2.60;73.85;98974.72;4984502;28;20018;-95
2023/02/04 02:05:31;;;;;;;4.97;2.83;;;;;;;2.68;74.81;98999.34;4984931;28;20570;-96
2023/02/04 02:07:57;;;;;;;5.93;4.05;;;;;;;2.59;74.60;98994.38;4983218;28;20049;-95
2023/02/04 02:10:23;;;;;;;7.72;5.03;;;;;;;2.33;74.60;98952.22;4983959;28;20033;-96
2023/02/04 02:12:49;;;;;;;8.88;4.32;;;;;;;2.49;74.15;98954.25;4984143;28;20101;-96
2023/02/04 02:15:14;;;;;;;9.40;4.40;;;;;;;2.56;74.00;98948.81;4983202;28;20076;-96
2023/02/04 02:17:40;;;;;;;6.75;4.13;;;;;;;2.79;73.57;98962.16;4983488;28;20025;-96
2023/02/04 02:20:07;;;;;;;7.28;4.72;;;;;;;2.67;73.56;98940.06;4984578;28;20026;-96
2023/02/04 02:22:47;;;;;;;8.88;4.22;;;;;;;2.78;73.42;98943.78;4984100;28;20041;-96
2023/02/04 02:25:13;;;;;;;6.30;3.95;;;;;;;2.80;73.48;98918.63;4983985;28;20038;-95
2023/02/04 02:27:39;;;;;;;6.53;4.45;;;;;;;2.81;73.80;98940.69;4982640;28;20025;-96
2023/02/04 02:30:05;;;;;;;5.35;3.95;;;;;;;2.89;73.66;98928.91;4983538;28;20411;-96
2023/02/04 02:32:31;;;;;;;6.03;4.30;;;;;;;2.92;73.91;98947.06;4983912;28;20097;-95
2023/02/04 02:34:56;;;;;;;5.63;4.18;;;;;;;2.91;73.71;98945.44;4983101;28;20057;-95
2023/02/04 02:37:22;;;;;;;6.68;3.65;;;;;;;2.88;73.56;98916.63;4982477;28;20497;-96
2023/02/04 02:39:47;;;;;;;6.65;4.00;;;;;;;2.90;73.55;98909.25;4983044;28;20060;-95
2023/02/04 02:42:15;;;;;;;5.82;3.58;;;;;;;3.03;73.97;98938.28;4983382;28;20033;-96
2023/02/04 02:44:41;;;;;;;5.03;3.53;;;;;;;2.86;73.57;98910.75;4982810;28;20049;-95
2023/02/04 02:47:10;;;;;;;4.25;3.03;;;;;;;3.04;73.71;98906.13;4999147;28;20033;-94
2023/02/04 02:49:36;;;;;;;5.82;3.88;;;;;;;3.07;74.01;98904.84;4983919;28;20025;-95
2023/02/04 02:52:02;;;;;;;9.55;6.07;;;;;;;3.12;73.39;98901.53;4983252;28;20025;-96
2023/02/04 02:54:28;;;;;;;6.30;3.63;;;;;;;3.26;73.63;98910.06;4982491;28;20026;-95
2023/02/04 02:56:54;;;;;;;4.20;2.90;;;;;;;3.36;73.06;98913.78;4982674;28;20026;-96
2023/02/04 02:59:20;;;;;;;7.25;3.53;;;;;;;3.33;73.26;98892.94;4983547;28;20033;-96
2023/02/04 03:01:46;;;;;;;7.10;5.28;;;;;;;3.33;72.83;98879.63;4999512;28;20013;-96
2023/02/04 03:04:12;;;;;;;7.70;3.90;;;;;;;3.23;73.10;98890.84;4982972;28;20030;-95
2023/02/04 03:06:37;;;;;;;6.38;4.30;;;;;;;3.18;73.39;98885.44;4982215;28;20024;-96
2023/02/04 03:09:03;;;;;;;9.27;5.68;;;;;;;3.07;74.25;98896.88;4983359;28;20029;-96
2023/02/04 03:11:29;;;;;;;9.80;5.45;;;;;;;2.95;74.42;98870.28;4983038;28;20020;-95
2023/02/04 03:13:59;;;;;;;7.28;5.13;;;;;;;2.79;74.87;98868.31;4981854;28;20054;-96
2023/02/04 03:16:26;;;;;;;12.13;5.50;;;;;;;2.73;74.95;98874.56;4982367;28;20513;-95
2023/02/04 03:18:51;;;;;;;9.35;5.68;;;;;;;2.70;75.23;98864.38;4982786;28;20500;-96
2023/02/04 03:21:17;;;;;;;10.05;6.05;;;;;;;2.80;75.12;98893.84;4982690;28;20034;-96
2023/02/04 03:23:43;;;;;;;7.22;5.43;;;;;;;2.57;74.48;98860.91;4982530;28;20033;-96
2023/02/04 03:26:08;;;;;;;9.80;4.80;;;;;;;2.67;75.10;98872.81;4983071;28;20032;-96
2023/02/04 03:28:38;;;;;;;10.63;6.90;;;;;;;2.84;74.18;98876.41;4982546;28;20153;-96
2023/02/04 03:31:04;;;;;;;7.30;4.88;;;;;;;2.83;74.78;98885.44;4983239;28;20029;-95
2023/02/04 03:33:30;;;;;;;10.90;5.93;;;;;;;2.74;74.24;98858.38;4982157;28;20022;-95
2023/02/04 03:35:59;;;;;;;7.75;5.22;;;;;;;2.88;74.34;98863.47;4982410;28;20042;-96
2023/02/04 03:38:24;;;;;;;9.40;5.40;;;;;;;3.08;73.93;98874.56;4982910;28;20063;-95
2023/02/04 03:40:50;;;;;;;6.78;4.60;;;;;;;3.08;73.92;98868.44;4982298;28;20532;-96
2023/02/04 03:43:15;;;;;;;8.10;5.22;;;;;;;3.03;74.28;98861.16;4981389;28;20025;-96
2023/02/04 03:45:41;;;;;;;10.07;5.88;;;;;;;2.91;74.55;98861.16;4982741;28;20030;-95
2023/02/04 03:48:07;;;;;;;6.72;4.82;;;;;;;3.01;74.00;98852.63;4982634;28;20067;-95
2023/02/04 03:50:32;;;;;;;9.15;4.40;;;;;;;2.89;74.00;98838.50;4986535;28;20034;-95
2023/02/04 03:52:58;;;;;;;6.07;4.35;;;;;;;3.19;74.20;98868.41;4985385;28;20034;-95
2023/02/04 03:55:25;;;;;;;6.40;4.38;;;;;;;3.03;74.78;98842.56;4986287;28;20026;-95
2023/02/04 03:57:51;;;;;;;7.95;4.55;;;;;;;2.95;74.39;98838.38;4986172;28;20423;-96
2023/02/04 04:00:16;;;;;;;7.07;4.13;;;;;;;3.13;74.45;98840.09;4985233;28;20116;-95
2023/02/04 04:02:42;;;;;;;8.10;4.40;;;;;;;3.23;74.03;98842.16;4985141;28;20036;-95
2023/02/04 04:05:08;;;;;;;7.78;4.22;;;;;;;3.12;74.89;98832.38;4985593;28;20022;-95
2023/02/04 04:07:33;;;;;;;5.28;4.25;;;;;;;3.27;74.90;98850.50;4985372;28;20030;-96
2023/02/04 04:09:59;;;;;;;8.27;4.50;;;;;;;3.24;74.93;98830.50;4985694;28;20029;-96
2023/02/04 04:12:24;;;;;;;10.32;4.70;;;;;;;3.35;73.78;98840.31;4984934;28;20091;-95
2023/02/04 04:14:50;;;;;;;6.68;4.28;;;;;;;3.41;74.23;98839.38;4985750;28;20133;-96
2023/02/04 04:17:15;;;;;;;8.50;4.55;;;;;;;3.44;74.28;98830.09;4985796;28;20096;-96
2023/02/04 04:19:43;;;;;;;8.73;4.63;;;;;;;3.48;74.76;98830.44;4985570;28;20515;-95
2023/02/04 04:22:08;;;;;;;10.18;5.70;;;;;;;3.42;75.34;98826.84;4985267;28;20089;-96
2023/02/04 04:24:34;;;;;;;8.95;5.25;;;;;;;3.52;75.10;98843.03;4986531;28;20025;-95
2023/02/04 04:26:59;;;;;;;8.65;5.57;;;;;;;3.50;75.07;98839.81;4986458;28;20036;-95
2023/02/04 04:29:25;;;;;;;8.93;6.18;;;;;;;3.37;75.09;98830.22;4985856;28;20026;-95
2023/02/04 04:31:50;;;;;;;9.60;5.53;;;;;;;3.21;75.27;98815.78;4984376;28;20044;-93
2023/02/04 04:34:16;;;;;;;10.13;6.53;;;;;;;3.17;76.05;98835.91;4985842;28;20040;-95
2023/02/04 04:36:41;;;;;;;7.97;5.22;;;;;;;3.02;75.47;98799.16;4985903;28;20029;-95
2023/02/04 04:39:07;;;;;;;8.98;5.00;;;;;;;3.29;75.43;98832.44;4984578;28;20493;-94
2023/02/04 04:41:32;;;;;;;7.88;5.03;;;;;;;3.26;75.31;98808.97;4985343;28;20033;-96
2023/02/04 04:43:58;;;;;;;12.90;6.32;;;;;;;3.34;75.30;98808.59;4986019;28;20112;-95
2023/02/04 04:46:23;;;;;;;10.82;6.43;;;;;;;3.46;75.00;98808.56;4985256;28;20026;-95
2023/02/04 04:48:49;;;;;;;10.65;5.88;;;;;;;3.58;75.39;98820.00;4985323;28;20065;-95
2023/02/04 04:51:15;;;;;;;10.10;6.10;;;;;;;3.55;75.04;98809.81;4985210;28;20088;-96
2023/02/04 04:53:40;;;;;;;10.63;6.03;;;;;;;3.51;75.54;98803.34;4985498;28;20480;-96
2023/02/04 04:56:06;;;;;;;16.35;9.18;;;;;;;3.62;75.17;98813.16;4985402;28;20172;-95
2023/02/04 04:58:32;;;;;;;21.58;11.02;;;;;;;3.60;75.33;98796.63;4984729;28;20064;-95
2023/02/04 05:00:57;;;;;;;17.95;9.85;;;;;;;3.59;75.46;98793.16;4984943;28;20033;-96
2023/02/04 05:03:23;;;;;;;15.32;8.25;;;;;;;3.65;74.84;98786.03;4985725;28;20038;-96
2023/02/04 05:05:48;;;;;;;9.48;5.65;;;;;;;3.66;74.90;98792.19;4984990;28;20026;-96
2023/02/04 05:08:15;;;;;;;10.77;5.63;;;;;;;3.72;74.97;98780.59;4984292;28;20095;-96
2023/02/04 05:10:42;;;;;;;10.25;5.28;;;;;;;3.81;74.51;98800.47;4986015;28;20030;-96
2023/02/04 05:13:09;;;;;;;9.10;4.82;;;;;;;3.78;74.58;98791.09;4985845;28;20540;-96
2023/02/04 05:15:34;;;;;;;8.25;4.82;;;;;;;3.77;74.65;98784.16;4985505;28;20050;-96
2023/02/04 05:18:03;;;;;;;8.00;5.30;;;;;;;3.74;74.44;98784.63;4984155;28;20030;-96
2023/02/04 05:20:33;;;;;;;10.15;5.30;;;;;;;3.71;75.19;98779.78;4984519;28;20030;-96
2023/02/04 05:23:01;;;;;;;8.60;5.63;;;;;;;3.74;74.87;98771.31;4986030;28;20025;-96
2023/02/04 05:25:27;;;;;;;13.18;6.00;;;;;;;3.90;74.21;98801.72;4985570;28;20030;-96
2023/02/04 05:27:53;;;;;;;11.02;7.13;;;;;;;3.85;74.61;98793.63;4984621;28;20041;-96
2023/02/04 05:30:18;;;;;;;13.30;8.40;;;;;;;3.72;75.01;98794.72;4985316;28;20025;-96
2023/02/04 05:32:44;;;;;;;14.43;7.05;;;;;;;3.59;75.21;98779.84;4984996;28;20416;-96
2023/02/04 05:35:09;;;;;;;10.70;6.95;;;;;;;3.46;75.04;98768.66;4985012;28;20412;-94
2023/02/04 05:37:35;;;;;;;13.82;8.88;;;;;;;3.41;75.15;98788.00;4984862;28;20036;-96
2023/02/04 05:40:01;;;;;;;18.85;10.85;;;;;;;3.24;75.30;98782.63;4984695;28;20025;-95
2023/02/04 05:42:27;;;;;;;17.60;12.45;;;;;;;3.19;75.14;98785.16;4985256;28;20025;-94
2023/02/04 05:44:52;;;;;;;16.73;9.93;;;;;;;3.10;75.28;98789.22;4985040;28;20029;-96
2023/02/04 05:47:19;;;;;;;18.63;9.95;;;;;;;3.21;75.63;98817.66;4984064;28;20025;-96
2023/02/04 05:49:45;;;;;;;12.30;8.32;;;;;;;3.07;76.00;98787.03;4984912;28;20021;-96
2023/02/04 05:52:10;;;;;;;13.60;8.07;;;;;;;3.16;75.35;98791.75;4984584;28;20026;-96
2023/02/04 05:54:36;;;;;;;14.05;9.07;;;;;;;2.96;75.67;98778.81;4984149;28;20033;-94
2023/02/04 05:57:01;;;;;;;14.10;9.60;;;;;;;3.10;75.28;98790.03;4982979;28;20442;-93
2023/02/04 05:59:27;;;;;;;15.13;8.38;;;;;;;3.25;76.34;98816.13;4983252;28;20034;-93
2023/02/04 06:01:53;;;;;;;9.85;6.80;;;;;;;3.26;76.48;98822.25;4983740;28;20477;-93
2023/02/04 06:04:21;;;;;;;14.20;6.30;;;;;;;3.17;76.48;98805.84;4982918;28;20488;-94
2023/02/04 06:06:46;;;;;;;17.90;10.52;;;;;;;3.34;76.08;98803.28;4984308;28;20026;-94
2023/02/04 06:09:12;;;;;;;12.15;6.10;;;;;;;3.29;76.54;98803.19;4983112;28;20033;-92
2023/02/04 06:11:37;;;;;;;8.98;5.22;;;;;;;3.26;76.19;98799.16;4982778;28;20381;-94
2023/02/04 06:14:03;;;;;;;9.85;5.75;;;;;;;3.46;76.57;98820.03;4982778;28;20056;-94
2023/02/04 06:16:29;;;;;;;6.60;3.75;;;;;;;3.39;75.73;98795.41;4983072;28;20053;-94
2023/02/04 06:18:54;;;;;;;6.07;4.30;;;;;;;3.59;75.74;98797.66;4983629;28;20095;-94
2023/02/04 06:21:20;;;;;;;4.35;2.83;;;;;;;3.73;75.57;98811.50;4984328;28;20508;-94
2023/02/04 06:23:45;;;;;;;5.97;3.00;;;;;;;3.73;76.09;98800.84;4983166;28;20033;-95
2023/02/04 06:26:11;;;;;;;5.43;2.53;;;;;;;3.93;75.01;98819.06;4983557;28;20025;-94
2023/02/04 06:28:36;;;;;;;10.93;2.65;;;;;;;3.94;75.38;98823.31;4982525;28;20022;-93
2023/02/04 06:31:02;;;;;;;4.07;2.25;;;;;;;3.85;75.33;98804.25;4982641;28;20026;-93
2023/02/04 06:33:27;;;;;;;6.93;2.60;;;;;;;4.03;75.31;98796.06;4982394;28;20551;-94
2023/02/04 06:35:53;;;;;;;7.53;2.40;;;;;;;4.18;75.39;98808.84;4982297;28;20408;-93
2023/02/04 06:38:19;;;;;;;6.72;2.55;;;;;;;4.21;74.60;98808.38;4983139;28;20025;-94
2023/02/04 06:40:48;;;;;;;6.97;2.47;;;;;;;4.36;75.01;98828.34;4983251;28;20033;-94
2023/02/04 06:43:14;;;;;;;7.43;2.35;;;;;;;4.52;73.42;98827.53;4983572;28;20432;-93
2023/02/04 06:45:40;;;;;;;7.72;2.78;;;;;;;4.32;74.79;98809.34;4982306;28;20416;-96
2023/02/04 06:48:05;;;;;;;6.30;2.88;;;;;;;4.38;73.53;98804.91;4982768;28;20030;-95
2023/02/04 06:50:31;;;;;;;6.25;2.80;;;;;;;4.51;73.69;98807.25;4982891;28;20041;-95
2023/02/04 06:52:56;;;;;;;6.00;2.85;;;;;;;4.61;73.51;98818.09;4981759;28;20037;-93
2023/02/04 06:55:22;;;;;;;5.43;2.78;;;;;;;4.89;72.15;98826.22;4982095;28;20145;-94
2023/02/04 06:57:47;;;;;;;14.18;4.85;;;;;;;4.96;71.99;98824.19;4983169;28;20120;-94
2023/02/04 07:00:18;;;;;;;10.18;3.72;;;;;;;4.91;72.17;98806.25;4988854;28;20030;-96
2023/02/04 07:02:44;;;;;;;5.93;2.85;;;;;;;4.92;71.11;98825.72;4986724;28;20034;-96
2023/02/04 07:05:10;;;;;;;4.07;2.03;;;;;;;4.99;72.13;98827.16;4983096;28;20386;-96
2023/02/04 07:07:35;;;;;;;4.63;2.50;;;;;;;4.91;72.11;98824.91;4982456;28;20030;-95
2023/02/04 07:10:01;;;;;;;5.18;3.10;;;;;;;4.95;71.77;98831.38;4982359;28;20026;-95
2023/02/04 07:12:26;;;;;;;3.92;2.50;;;;;;;5.14;70.26;98837.25;4982862;28;20037;-96
2023/02/04 07:14:52;;;;;;;4.80;2.22;;;;;;;5.03;70.64;98822.16;4982532;28;20509;-96
2023/02/04 07:17:18;;;;;;;12.70;7.35;;;;;;;4.95;71.45;98838.59;4983905;28;20049;-95
2023/02/04 07:19:43;;;;;;;5.93;3.83;;;;;;;4.89;70.80;98812.88;4982328;28;20038;-96
2023/02/04 07:22:09;;;;;;;3.97;2.13;;;;;;;5.12;69.50;98841.22;4983084;28;20030;-95
2023/02/04 07:24:34;;;;;;;3.03;2.08;;;;;;;4.95;70.17;98825.25;4998388;28;20045;-96
2023/02/04 07:27:00;;;;;;;3.08;2.10;;;;;;;5.02;70.15;98829.34;4983178;28;20041;-95
2023/02/04 07:29:25;;;;;;;9.95;4.00;;;;;;;5.11;70.78;98834.28;4982522;28;20026;-95
2023/02/04 07:31:51;;;;;;;4.25;2.35;;;;;;;5.19;70.37;98844.53;4983281;28;20026;-95
2023/02/04 07:34:17;;;;;;;6.28;2.95;;;;;;;5.20;70.01;98849.59;4998630;28;20088;-95
2023/02/04 07:36:43;;;;;;;3.40;2.22;;;;;;;5.15;70.75;98841.53;4982908;28;20034;-95
2023/02/04 07:39:09;;;;;;;5.43;2.50;;;;;;;5.16;69.62;98821.00;4983177;28;20432;-96
2023/02/04 07:41:34;;;;;;;4.43;2.50;;;;;;;5.25;68.50;98825.66;4983800;28;20034;-96
2023/02/04 07:44:03;;;;;;;3.88;2.70;;;;;;;5.42;68.08;98838.97;4982842;28;20161;-96
2023/02/04 07:46:29;;;;;;;5.25;2.72;;;;;;;5.40;68.72;98841.06;4984348;28;20053;-96
2023/02/04 07:48:54;;;;;;;4.93;2.60;;;;;;;5.23;68.60;98816.28;4983632;28;20025;-96
2023/02/04 07:51:20;;;;;;;5.93;3.33;;;;;;;5.23;69.02;98821.63;4983926;28;20026;-96
2023/02/04 07:53:46;;;;;;;8.32;3.63;;;;;;;5.30;68.22;98819.56;4982556;28;20058;-95
2023/02/04 07:56:11;;;;;;;8.00;4.53;;;;;;;5.23;68.64;98813.63;4983253;28;20025;-95
2023/02/04 07:58:37;;;;;;;5.82;2.90;;;;;;;5.24;69.38;98812.56;4983522;28;20029;-95
2023/02/04 08:01:05;;;;;;;3.70;2.45;;;;;;;5.32;67.66;98822.00;4983675;28;20034;-96
2023/02/04 08:03:30;;;;;;;5.10;2.63;;;;;;;5.28;68.95;98810.22;4983573;28;20010;-96
2023/02/04 08:05:56;;;;;;;4.88;2.80;;;;;;;5.42;66.75;98822.94;4983011;28;20053;-96
2023/02/04 08:08:25;;;;;;;7.35;3.42;;;;;;;5.20;67.20;98806.09;4983522;28;20022;-96
2023/02/04 08:10:50;;;;;;;5.93;2.92;;;;;;;5.28;67.32;98805.69;4984343;28;20049;-95
2023/02/04 08:13:16;;;;;;;5.65;2.67;;;;;;;5.22;67.84;98791.44;4984625;28;20026;-95
2023/02/04 08:15:41;;;;;;;5.53;2.85;;;;;;;5.35;67.67;98794.81;4983112;28;20512;-96
2023/02/04 08:18:07;;;;;;;5.97;3.08;;;;;;;5.29;66.84;98801.13;4983406;28;20030;-96
2023/02/04 08:20:33;;;;;;;7.40;2.55;;;;;;;5.38;66.32;98805.81;4983759;28;20145;-96
2023/02/04 08:22:58;;;;;;;7.10;3.33;;;;;;;5.44;66.87;98807.47;4982846;28;20034;-96
2023/02/04 08:25:24;;;;;;;6.50;3.45;;;;;;;5.57;66.56;98802.81;4982514;28;20026;-96
2023/02/04 08:27:49;;;;;;;4.57;2.65;;;;;;;5.33;66.78;98802.25;4982184;28;20108;-94
2023/02/04 08:30:15;;;;;;;3.55;2.30;;;;;;;5.47;66.42;98801.63;4983153;28;20053;-95
2023/02/04 08:32:40;;;;;;;4.53;2.53;;;;;;;5.59;66.02;98803.38;4982245;28;20025;-95
2023/02/04 08:35:06;;;;;;;3.75;2.75;;;;;;;5.59;66.50;98790.03;4982998;28;20034;-95
2023/02/04 08:37:32;;;;;;;4.65;2.75;;;;;;;5.79;65.84;98808.94;4987356;28;20033;-96
2023/02/04 08:39:58;;;;;;;5.22;2.65;;;;;;;5.96;65.29;98803.53;4986625;28;20057;-96
2023/02/04 08:42:23;;;;;;;7.97;3.80;;;;;;;6.02;65.77;98804.41;4985516;28;20065;-95
2023/02/04 08:44:49;;;;;;;7.75;3.50;;;;;;;5.88;65.83;98788.72;4986168;28;20076;-93
2023/02/04 08:47:14;;;;;;;18.50;7.63;;;;;;;6.05;66.03;98812.69;4986816;28;20033;-95
2023/02/04 08:49:40;;;;;;;7.50;3.47;;;;;;;6.00;65.17;98817.22;4987617;28;20103;-96
2023/02/04 08:52:06;;;;;;;15.00;4.93;;;;;;;5.96;65.31;98802.75;4986459;28;20385;-94
2023/02/04 08:54:37;;;;;;;11.57;4.30;;;;;;;6.07;65.28;98804.44;4994579;28;20033;-96
2023/02/04 08:57:03;;;;;;;5.17;2.60;;;;;;;5.96;64.61;98794.72;4989547;28;20188;-96
2023/02/04 08:59:58;;;;;;;6.57;2.85;;;;;;;5.83;64.47;98787.84;4990465;28;20323;-96
2023/02/04 09:02:23;;;;;;;13.48;4.15;;;;;;;5.85;65.27;98793.75;4968903;28;20121;-94
2023/02/04 09:04:49;;;;;;;7.75;3.63;;;;;;;5.95;66.27;98819.81;4953415;28;20085;-95
2023/02/04 09:07:15;;;;;;;7.10;2.80;;;;;;;5.87;65.41;98799.66;4965766;28;20046;-96
2023/02/04 09:09:41;;;;;;;4.68;2.67;;;;;;;5.81;65.80;98812.19;4949373;28;20134;-94
2023/02/04 09:12:06;;;;;;;4.18;3.08;;;;;;;5.84;67.85;98814.34;4951146;28;20059;-95
2023/02/04 09:14:32;;;;;;;4.20;2.85;;;;;;;5.74;67.01;98794.72;4953154;28;20066;-96
2023/02/04 09:16:57;;;;;;;3.22;2.17;;;;;;;5.75;66.91;98817.69;4950941;28;20038;-95
2023/02/04 09:19:24;;;;;;;6.35;3.30;;;;;;;5.57;67.10;98805.50;4964560;28;20037;-95
2023/02/04 09:21:52;;;;;;;7.10;2.80;;;;;;;5.66;68.02;98823.50;4949505;28;20088;-95
2023/02/04 09:24:18;;;;;;;5.38;2.72;;;;;;;5.56;68.75;98830.56;4964160;28;20030;-95
2023/02/04 09:26:43;;;;;;;8.75;3.92;;;;;;;5.57;69.12;98829.53;4947721;28;20434;-95
2023/02/04 09:29:09;;;;;;;8.02;4.35;;;;;;;5.23;69.59;98797.63;4948419;28;20046;-96
2023/02/04 09:31:34;;;;;;;5.28;3.58;;;;;;;5.33;71.10;98813.72;4947496;28;20053;-95
2023/02/04 09:34:00;;;;;;;7.63;3.47;;;;;;;5.17;71.94;98815.41;4974178;28;20096;-95
2023/02/04 09:36:28;;;;;;;12.88;6.55;;;;;;;5.14;70.30;98810.56;4983996;28;20034;-96
2023/02/04 09:38:54;;;;;;;4.80;3.00;;;;;;;5.21;69.31;98811.19;4984987;28;20517;-95
2023/02/04 09:41:19;;;;;;;9.65;3.58;;;;;;;5.07;70.29;98802.72;4984020;28;20081;-95
2023/02/04 09:43:45;;;;;;;5.90;3.50;;;;;;;5.05;70.78;98802.19;4982667;28;20025;-95
2023/02/04 09:46:34;;;;;;;7.75;3.40;;;;;;;4.81;72.04;98782.88;4984219;28;20030;-95
2023/02/04 09:49:09;;;;;;;5.60;3.45;;;;;;;4.96;72.15;98797.50;5010090;28;20063;-96
2023/02/04 09:51:55;;;;;;;11.27;4.18;;;;;;;4.86;72.12;98776.84;4993173;28;20033;-96
2023/02/04 09:54:31;;;;;;;7.25;3.05;;;;;;;4.88;72.22;98784.56;5008948;28;20025;-96
2023/02/04 09:57:07;;;;;;;10.73;4.93;;;;;;;4.84;71.31;98769.06;5011196;28;20030;-96
2023/02/04 09:59:35;;;;;;;8.63;4.35;;;;;;;4.73;74.37;98766.50;4988795;28;20077;-96
2023/02/04 10:02:04;;;;;;;5.65;3.72;;;;;;;4.88;73.44;98795.25;4984215;28;20041;-96
2023/02/04 10:04:29;;;;;;;8.35;5.13;;;;;;;4.85;74.65;98765.34;4982863;28;20026;-95
2023/02/04 10:06:57;;;;;;;11.77;5.60;;;;;;;4.96;74.52;98774.31;4983138;28;20038;-95
2023/02/04 10:09:22;;;;;;;10.65;4.72;;;;;;;5.18;73.00;98776.97;4985087;28;20017;-95
2023/02/04 10:11:48;;;;;;;8.55;5.05;;;;;;;5.26;72.97;98773.09;4983673;28;20037;-96
2023/02/04 10:14:18;;;;;;;6.82;4.38;;;;;;;5.23;73.83;98754.91;4983012;28;20033;-96
2023/02/04 10:16:53;;;;;;;8.27;4.22;;;;;;;5.37;73.68;98769.47;4984850;28;20111;-95
2023/02/04 10:19:18;;;;;;;6.25;3.45;;;;;;;5.45;73.93;98774.38;4985502;28;20041;-95
2023/02/04 10:21:44;;;;;;;7.63;4.40;;;;;;;5.50;72.89;98754.94;4985022;28;20029;-95
2023/02/04 10:24:15;;;;;;;11.93;7.78;;;;;;;5.54;73.67;98757.91;4982305;28;20488;-95
2023/02/04 10:26:41;;;;;;;6.60;4.18;;;;;;;5.56;74.56;98735.25;4983737;28;20084;-95
2023/02/04 10:29:11;;;;;;;8.57;3.97;;;;;;;5.71;72.23;98752.47;4983955;28;20088;-94
2023/02/04 10:31:40;;;;;;;8.18;5.13;;;;;;;5.76;71.84;98744.53;4984208;28;20053;-95
2023/02/04 10:34:08;;;;;;;9.63;4.03;;;;;;;5.80;72.37;98767.81;4984322;28;20034;-95
2023/02/04 10:36:34;;;;;;;9.32;4.25;;;;;;;5.58;72.44;98754.50;4998923;28;20464;-96
2023/02/04 10:39:02;;;;;;;7.15;3.72;;;;;;;5.64;72.62;98760.69;4984565;28;20030;-96
2023/02/04 10:41:28;;;;;;;23.65;7.63;;;;;;;5.64;72.78;98748.16;4983234;28;20102;-95
2023/02/04 10:44:04;;;;;;;11.18;5.50;;;;;;;5.57;73.23;98736.84;4983146;28;20069;-95
2023/02/04 10:46:30;;;;;;;12.63;5.38;;;;;;;5.70;73.27;98751.66;4982315;28;20076;-94
2023/02/04 10:48:56;;;;;;;18.05;7.45;;;;;;;5.81;73.60;98744.56;4982509;28;20045;-93
2023/02/04 10:51:21;;;;;;;21.30;10.43;;;;;;;5.45;75.22;98738.88;5000042;28;20523;-94
2023/02/04 10:56:31;;;;;;;10.35;5.78;;;;;;;5.60;74.80;98725.69;5004644;28;20048;-94
2023/02/04 10:58:57;;;;;;;10.63;5.22;;;;;;;5.61;74.24;98731.84;4984801;28;20018;-96
2023/02/04 11:01:27;;;;;;;10.85;5.05;;;;;;;5.52;73.43;98726.13;4986211;28;20113;-96
2023/02/04 11:03:52;;;;;;;9.98;4.88;;;;;;;5.67;72.70;98733.50;4985876;28;20033;-95
2023/02/04 11:06:22;;;;;;;9.48;4.03;;;;;;;5.88;70.91;98755.88;4985045;28;20021;-94
2023/02/04 11:08:52;;;;;;;8.02;4.00;;;;;;;5.93;71.00;98752.44;4983794;28;20412;-95
2023/02/04 11:11:24;;;;;;;8.82;3.78;;;;;;;6.01;70.94;98736.75;4986801;28;20455;-96
2023/02/04 11:13:49;;;;;;;;;;;;;;;6.13;72.42;98746.50;4985860;28;20022;-96
2023/02/04 11:16:26;;;;;;;7.65;4.18;;;;;;;6.05;72.95;98723.72;5017193;28;19924;-95
2023/02/04 11:18:55;;;;;;;9.57;4.80;;;;;;;6.01;71.17;98695.88;4984725;28;20029;-95
2023/02/04 11:21:32;;;;;;;12.80;5.70;;;;;;;6.13;69.97;98707.22;4999895;28;20029;-95
2023/02/04 11:24:12;;;;;;;5.75;4.38;;;;;;;6.32;69.93;98730.88;5000417;28;20468;-96
2023/02/04 11:26:47;;;;;;;8.63;4.20;;;;;;;6.18;70.94;98733.16;5015998;28;20079;-95
2023/02/04 11:29:37;;;;;;;10.73;5.53;;;;;;;6.32;70.64;98729.00;5009993;28;20105;-96
2023/02/04 11:35:18;;;;;;;8.77;4.45;;;;;;;6.46;71.21;98721.34;5003368;28;20050;-96
2023/02/04 11:37:48;;;;;;;7.40;4.35;;;;;;;6.49;69.38;98702.09;4970138;28;20062;-95
2023/02/04 11:40:23;;;;;;;9.02;3.90;;;;;;;6.71;69.17;98722.56;4966358;28;20034;-94
2023/02/04 11:42:49;;;;;;;14.65;5.30;;;;;;;6.74;69.30;98714.00;4981567;28;20027;-95